Time;durP1;ratioP1;P1;durP2;ratioP2;P2;SDS_P1;SDS_P2;PMS_P1;PMS_P2;Temp;Humidity;BMP_temperature;BMP_pressure;BME280_temperature;BME280_humidity;BME280_pressure;Samples;Min_cycle;Max_cycle;Signal;HPM_P1;HPM_P2
2021/12/21 00:00:49;;;;;;;9.68;6.65;;;14.40;79.80;;;;;;4210269;28;20048;-61
2021/12/21 00:03:11;;;;;;;11.13;6.65;;;14.50;79.40;;;;;;4222011;27;20063;-60
2021/12/21 00:05:34;;;;;;;13.13;6.40;;;14.50;79.10;;;;;;4226676;27;20422;-60
2021/12/21 00:08:16;;;;;;;14.57;6.93;;;14.50;78.80;;;;;;4225051;27;20513;-60
2021/12/21 00:11:07;;;;;;;9.82;6.35;;;14.50;79.80;;;;;;4225676;27;21393;-60
2021/12/21 00:17:07;;;;;;;10.98;6.70;;;14.50;79.00;;;;;;4243777;27;20057;-60
2021/12/21 00:22:33;;;;;;;11.88;7.18;;;14.50;78.00;;;;;;4201164;28;20052;-59
2021/12/21 00:24:55;;;;;;;;;;;14.50;78.30;;;;;;4207976;28;20391;-58
2021/12/21 00:27:17;;;;;;;;;;;14.40;78.40;;;;;;4209234;28;19923;-58
2021/12/21 00:29:39;;;;;;;11.35;6.85;;;14.30;79.10;;;;;;4213520;27;19926;-60
2021/12/21 00:32:03;;;;;;;13.50;6.45;;;14.30;79.70;;;;;;4225376;27;20100;-59
2021/12/21 00:34:25;;;;;;;11.82;6.45;;;14.20;79.30;;;;;;4226093;28;20394;-59
2021/12/21 00:36:48;;;;;;;13.07;7.05;;;14.30;80.00;;;;;;4226422;27;20139;-59
2021/12/21 00:39:15;;;;;;;12.13;6.78;;;14.40;80.20;;;;;;4226552;28;20168;-59
2021/12/21 00:41:37;;;;;;;10.77;6.72;;;14.50;79.90;;;;;;4226074;28;20151;-60
2021/12/21 00:43:59;;;;;;;15.23;6.70;;;14.60;78.90;;;;;;4209719;28;20062;-59
2021/12/21 00:46:22;;;;;;;13.38;6.40;;;14.70;78.10;;;;;;4218958;27;20092;-60
2021/12/21 00:48:50;;;;;;;15.57;7.32;;;14.80;77.70;;;;;;4226795;28;20039;-60
2021/12/21 00:51:12;;;;;;;12.90;6.70;;;14.90;77.10;;;;;;4227301;27;20150;-60
2021/12/21 00:53:37;;;;;;;11.48;6.43;;;14.90;77.00;;;;;;4226482;27;20081;-59
2021/12/21 00:55:59;;;;;;;13.05;7.05;;;14.90;76.80;;;;;;4226866;27;20043;-60
2021/12/21 00:58:21;;;;;;;10.98;6.95;;;14.90;76.90;;;;;;4226447;27;20051;-60
2021/12/21 01:00:43;;;;;;;14.32;7.65;;;14.90;76.80;;;;;;4226652;27;20058;-59
2021/12/21 01:03:09;;;;;;;12.65;8.15;;;14.90;76.60;;;;;;4226121;27;20052;-59
2021/12/21 01:05:40;;;;;;;16.27;9.65;;;15.00;76.30;;;;;;4226357;27;20063;-60
2021/12/21 01:08:04;;;;;;;17.52;9.25;;;15.00;76.20;;;;;;4215072;28;20126;-60
2021/12/21 01:13:25;;;;;;;16.70;9.13;;;15.00;76.30;;;;;;4225831;28;20112;-60
2021/12/21 01:16:01;;;;;;;12.27;8.18;;;15.00;76.20;;;;;;4225934;28;20159;-60
2021/12/21 01:18:27;;;;;;;14.27;7.78;;;15.00;76.20;;;;;;4226409;27;20495;-60
2021/12/21 01:21:03;;;;;;;14.90;8.13;;;15.10;76.60;;;;;;4225955;28;20142;-59
2021/12/21 01:26:15;;;;;;;13.63;8.45;;;15.40;74.60;;;;;;4222152;27;20070;-59
2021/12/21 01:28:45;;;;;;;17.83;9.27;;;15.50;74.10;;;;;;4224286;28;20094;-60
2021/12/21 01:31:20;;;;;;;14.35;8.88;;;15.50;73.50;;;;;;4225416;27;20043;-60
2021/12/21 01:33:53;;;;;;;14.32;8.52;;;15.50;73.10;;;;;;4225527;28;20444;-59
2021/12/21 01:36:24;;;;;;;14.13;8.82;;;15.60;73.30;;;;;;4225855;28;20067;-60
2021/12/21 01:38:48;;;;;;;17.42;8.52;;;15.50;72.90;;;;;;4225215;27;20035;-60
2021/12/21 01:41:23;;;;;;;11.82;7.65;;;15.50;72.80;;;;;;4226148;28;20104;-60
2021/12/21 01:43:54;;;;;;;14.63;8.63;;;15.50;73.00;;;;;;4224220;28;20035;-60
2021/12/21 01:51:37;;;;;;;11.82;7.30;;;15.30;73.60;;;;;;4222335;28;20132;-59
2021/12/21 01:54:00;;;;;;;11.93;7.35;;;15.40;73.60;;;;;;4205152;27;20058;-59
2021/12/21 01:56:22;;;;;;;10.82;7.40;;;15.40;73.60;;;;;;4242542;27;20062;-59
2021/12/21 01:58:45;;;;;;;9.20;6.43;;;15.40;73.40;;;;;;4242313;27;20039;-59
2021/12/21 02:01:09;;;;;;;10.60;6.57;;;15.30;73.20;;;;;;4241179;27;20043;-60
2021/12/21 02:03:32;;;;;;;10.15;7.10;;;15.30;73.10;;;;;;4242253;27;20079;-59
2021/12/21 02:05:54;;;;;;;13.35;6.03;;;15.20;73.30;;;;;;4242523;27;20331;-59
2021/12/21 02:08:18;;;;;;;10.18;7.00;;;15.20;73.60;;;;;;4238562;27;20543;-59
2021/12/21 02:10:40;;;;;;;11.77;7.10;;;15.20;74.70;;;;;;4242323;27;20415;-59
2021/12/21 02:13:03;;;;;;;11.93;6.53;;;15.20;74.30;;;;;;4240813;27;20051;-59
2021/12/21 02:15:26;;;;;;;12.10;6.53;;;15.20;73.90;;;;;;4242137;27;20466;-60
2021/12/21 02:18:28;;;;;;;12.77;6.50;;;15.30;73.20;;;;;;4242004;27;20466;-59
2021/12/21 02:20:55;;;;;;;;;;;15.30;73.10;;;;;;4242559;27;20119;-59
2021/12/21 02:23:22;;;;;;;9.32;6.28;;;15.20;73.60;;;;;;4242985;27;19919;-59
2021/12/21 02:26:09;;;;;;;9.15;6.03;;;15.20;74.00;;;;;;4242147;27;20421;-59
2021/12/21 02:31:16;;;;;;;10.15;6.40;;;15.30;73.40;;;;;;4226826;27;20078;-59
2021/12/21 02:33:38;;;;;;;11.75;6.20;;;15.40;73.10;;;;;;4232508;27;20047;-58
2021/12/21 02:36:03;;;;;;;10.75;6.22;;;15.40;72.80;;;;;;4228614;27;20040;-59
2021/12/21 02:38:26;;;;;;;10.35;6.05;;;15.50;72.70;;;;;;4228656;27;20052;-58
2021/12/21 02:40:48;;;;;;;9.77;5.95;;;15.50;72.40;;;;;;4217854;27;20138;-58
2021/12/21 02:43:13;;;;;;;8.40;5.53;;;15.60;71.90;;;;;;4201937;28;20139;-58
2021/12/21 02:45:35;;;;;;;9.75;6.45;;;15.70;71.60;;;;;;4194716;28;20122;-58
2021/12/21 02:47:57;;;;;;;11.52;6.20;;;15.70;72.00;;;;;;4196117;28;20071;-59
2021/12/21 02:50:20;;;;;;;7.30;6.07;;;15.60;71.20;;;;;;4186024;28;20115;-59
2021/12/21 02:52:43;;;;;;;9.50;6.22;;;15.60;71.50;;;;;;4194310;28;20105;-59
2021/12/21 02:55:09;;;;;;;9.20;5.95;;;15.70;71.30;;;;;;4194683;28;20129;-59
2021/12/21 02:57:31;;;;;;;11.63;6.00;;;15.70;71.10;;;;;;4220174;27;20059;-58
2021/12/21 02:59:53;;;;;;;12.07;6.00;;;15.70;71.30;;;;;;4245068;27;20563;-60
2021/12/21 03:02:15;;;;;;;10.57;6.32;;;15.70;71.00;;;;;;4245039;27;20050;-59
2021/12/21 03:04:37;;;;;;;9.65;6.10;;;15.70;70.60;;;;;;4245100;27;20042;-59
2021/12/21 03:09:41;;;;;;;9.52;5.80;;;15.80;70.00;;;;;;4253073;27;20044;-59
2021/12/21 03:12:12;;;;;;;9.32;6.10;;;15.70;70.30;;;;;;4244660;27;20059;-60
2021/12/21 03:14:34;;;;;;;13.55;6.63;;;15.60;70.70;;;;;;4228484;27;20044;-59
2021/12/21 03:16:56;;;;;;;10.00;6.15;;;15.60;71.30;;;;;;4227268;27;20096;-59
2021/12/21 03:19:18;;;;;;;10.60;6.60;;;15.60;71.20;;;;;;4227675;27;20051;-59
2021/12/21 03:21:40;;;;;;;13.85;6.20;;;15.70;70.60;;;;;;4227872;27;20440;-59
2021/12/21 03:24:04;;;;;;;11.07;6.93;;;15.70;70.40;;;;;;4226477;28;20051;-59
2021/12/21 03:26:28;;;;;;;13.30;7.47;;;15.70;70.50;;;;;;4227780;27;20044;-60
2021/12/21 03:28:50;;;;;;;13.30;7.88;;;15.70;70.80;;;;;;4227524;27;20047;-59
2021/12/21 03:31:12;;;;;;;16.38;8.05;;;15.80;70.40;;;;;;4226806;27;20113;-59
2021/12/21 03:33:34;;;;;;;13.43;7.70;;;15.80;70.10;;;;;;4242556;27;20080;-59
2021/12/21 03:35:56;;;;;;;13.98;7.32;;;15.80;69.90;;;;;;4244052;27;20035;-59
2021/12/21 03:38:18;;;;;;;12.20;7.50;;;15.80;69.60;;;;;;4244332;27;20051;-59
2021/12/21 03:40:40;;;;;;;12.02;6.47;;;15.70;69.70;;;;;;4214494;28;20051;-59
2021/12/21 03:43:04;;;;;;;10.43;6.47;;;15.60;69.80;;;;;;4244336;27;20762;-59
2021/12/21 03:45:27;;;;;;;13.90;7.75;;;15.60;70.30;;;;;;4243907;27;20123;-59
2021/12/21 03:47:50;;;;;;;16.13;7.68;;;15.60;70.60;;;;;;4242571;27;20050;-60
2021/12/21 03:50:18;;;;;;;11.98;7.32;;;15.50;70.90;;;;;;4243826;27;20059;-59
2021/12/21 03:52:40;;;;;;;13.50;6.85;;;15.60;71.10;;;;;;4243935;27;20475;-58
2021/12/21 03:55:04;;;;;;;8.02;6.35;;;15.70;70.80;;;;;;4234830;27;20047;-58
2021/12/21 03:57:26;;;;;;;15.25;7.10;;;15.80;70.00;;;;;;4225504;27;20047;-59
2021/12/21 03:59:50;;;;;;;14.70;6.80;;;15.90;69.30;;;;;;4227273;27;20351;-60
2021/12/21 04:02:14;;;;;;;12.48;6.95;;;15.90;69.00;;;;;;4226597;27;20134;-59
2021/12/21 04:04:36;;;;;;;12.07;7.18;;;15.90;69.00;;;;;;4210374;28;20446;-60
2021/12/21 04:06:59;;;;;;;9.60;6.50;;;15.90;69.10;;;;;;4210078;28;20072;-60
2021/12/21 04:09:20;;;;;;;11.40;6.53;;;15.90;69.00;;;;;;4209761;28;20052;-60
2021/12/21 04:11:43;;;;;;;7.90;6.15;;;15.80;68.90;;;;;;4242628;27;20054;-61
2021/12/21 04:14:05;;;;;;;11.80;7.45;;;15.80;69.10;;;;;;4243567;27;20047;-58
2021/12/21 04:16:29;;;;;;;12.05;6.10;;;15.80;69.50;;;;;;4243546;27;20123;-60
2021/12/21 04:18:51;;;;;;;13.30;6.47;;;15.80;69.50;;;;;;4243465;27;20047;-59
2021/12/21 04:21:14;;;;;;;11.10;5.78;;;15.70;69.60;;;;;;4209056;28;20505;-59
2021/12/21 04:23:37;;;;;;;13.27;6.80;;;15.70;69.60;;;;;;4208942;28;20044;-59
2021/12/21 04:25:59;;;;;;;9.45;6.45;;;15.60;69.60;;;;;;4210456;28;20063;-60
2021/12/21 04:28:21;;;;;;;13.25;7.35;;;15.60;70.30;;;;;;4192840;28;20431;-59
2021/12/21 04:30:43;;;;;;;12.57;7.30;;;15.60;70.50;;;;;;4193340;28;20048;-59
2021/12/21 04:33:07;;;;;;;11.90;6.57;;;15.60;70.30;;;;;;4192358;28;20044;-59
2021/12/21 04:35:29;;;;;;;11.88;6.78;;;15.70;69.60;;;;;;4192677;28;21023;-58
2021/12/21 04:37:57;;;;;;;11.85;7.13;;;15.70;69.60;;;;;;4192958;28;20048;-58
2021/12/21 04:40:23;;;;;;;9.52;6.90;;;15.70;70.30;;;;;;4193365;28;20131;-59
2021/12/21 04:42:45;;;;;;;13.23;6.63;;;15.70;69.80;;;;;;4209594;27;20758;-58
2021/12/21 04:45:08;;;;;;;11.57;6.90;;;15.80;69.80;;;;;;4226312;28;20067;-59
2021/12/21 04:47:30;;;;;;;11.55;6.82;;;15.90;69.30;;;;;;4225350;28;20491;-59
2021/12/21 04:49:54;;;;;;;10.38;6.28;;;15.90;68.60;;;;;;4226834;28;20050;-59
2021/12/21 04:52:16;;;;;;;9.55;6.07;;;16.00;68.80;;;;;;4226158;28;20079;-60
2021/12/21 04:54:39;;;;;;;10.73;6.53;;;16.00;67.80;;;;;;4209560;28;20135;-59
2021/12/21 05:03:32;;;;;;;8.95;6.45;;;15.80;68.40;;;;;;4652708;23;21366;31
2021/12/21 05:05:45;;;;;;;8.23;6.22;;;15.70;68.80;;;;;;3954701;29;20059;-60
2021/12/21 05:08:10;;;;;;;9.68;5.93;;;15.70;68.90;;;;;;3956100;29;20074;-59
2021/12/21 05:10:32;;;;;;;13.13;6.65;;;15.70;69.80;;;;;;3955454;29;20061;-62
2021/12/21 05:12:54;;;;;;;10.70;6.32;;;15.70;69.10;;;;;;3956170;29;20059;-62
2021/12/21 05:15:16;;;;;;;11.10;6.40;;;15.70;69.20;;;;;;3956639;29;20055;-62
2021/12/21 05:17:38;;;;;;;9.52;6.60;;;15.80;68.90;;;;;;3955096;29;20063;-62
2021/12/21 05:20:00;;;;;;;14.55;7.05;;;15.80;68.60;;;;;;3956323;29;20050;-61
2021/12/21 05:22:24;;;;;;;10.68;6.55;;;15.80;68.50;;;;;;3956348;29;20150;-61
2021/12/21 05:24:46;;;;;;;9.43;6.25;;;15.80;68.60;;;;;;3956142;29;20477;-61
2021/12/21 05:27:09;;;;;;;11.13;6.38;;;15.80;68.50;;;;;;3956506;29;20142;-62
2021/12/21 05:29:32;;;;;;;11.07;6.68;;;15.70;68.40;;;;;;3956549;29;20051;-61
2021/12/21 05:31:54;;;;;;;12.30;6.38;;;15.70;68.60;;;;;;3955369;29;20055;-61
2021/12/21 05:34:20;;;;;;;8.00;6.20;;;15.60;69.10;;;;;;3955042;29;20059;-61
2021/12/21 05:36:42;;;;;;;9.10;6.72;;;15.60;69.60;;;;;;3956013;29;20120;-61
2021/12/21 05:39:15;;;;;;;8.43;5.97;;;15.70;69.50;;;;;;3956393;29;20492;-61
2021/12/21 05:41:48;;;;;;;12.38;6.78;;;15.80;69.00;;;;;;3941457;29;20066;-61
2021/12/21 05:44:10;;;;;;;9.25;6.63;;;15.90;68.40;;;;;;3941423;29;20064;-61
2021/12/21 05:46:32;;;;;;;10.48;5.90;;;15.90;67.80;;;;;;3941656;29;20055;-61
2021/12/21 05:48:55;;;;;;;10.13;6.65;;;15.90;68.40;;;;;;3941749;30;20062;-61
2021/12/21 05:51:17;;;;;;;10.82;6.90;;;15.90;67.40;;;;;;3941767;30;20082;-61
2021/12/21 05:53:39;;;;;;;9.05;6.10;;;15.90;67.60;;;;;;3952161;29;20047;-61
2021/12/21 05:56:03;;;;;;;12.80;7.80;;;15.80;68.00;;;;;;3956052;29;20063;-64
2021/12/21 05:58:26;;;;;;;9.57;6.93;;;15.90;68.30;;;;;;3955810;29;20134;-62
2021/12/21 06:00:48;;;;;;;10.60;7.25;;;15.90;67.80;;;;;;3956503;29;20054;-62
2021/12/21 06:03:10;;;;;;;9.60;6.35;;;15.90;67.70;;;;;;3956068;29;20164;-61
2021/12/21 06:05:32;;;;;;;10.18;6.20;;;15.90;67.60;;;;;;3941240;29;20527;-61
2021/12/21 06:07:55;;;;;;;9.02;5.90;;;15.80;67.80;;;;;;3941249;29;20116;-60
2021/12/21 06:10:23;;;;;;;8.85;6.10;;;15.80;68.00;;;;;;3941252;29;20081;-63
2021/12/21 06:13:12;;;;;;;8.73;5.78;;;15.90;68.00;;;;;;3940872;29;20044;-63
2021/12/21 06:15:44;;;;;;;7.32;6.13;;;15.90;67.20;;;;;;3940931;29;20155;-62
2021/12/21 06:26:08;;;;;;;9.45;6.80;;;15.80;67.80;;;;;;3941064;29;20059;-62
2021/12/21 06:28:33;;;;;;;9.75;5.65;;;15.90;67.70;;;;;;3941065;29;20059;-63
2021/12/21 06:30:55;;;;;;;9.75;6.25;;;15.90;67.10;;;;;;3926938;30;20052;-62
2021/12/21 06:33:18;;;;;;;10.73;6.32;;;16.00;66.70;;;;;;3937967;29;20142;-61
2021/12/21 06:35:40;;;;;;;7.10;6.20;;;16.00;66.30;;;;;;3941189;29;20131;-61
2021/12/21 06:38:02;;;;;;;10.52;6.47;;;15.90;66.20;;;;;;3940913;29;20097;-61
2021/12/21 06:40:26;;;;;;;10.32;6.32;;;15.90;66.50;;;;;;3941145;29;20048;-61
2021/12/21 06:42:50;;;;;;;9.27;6.13;;;15.80;66.70;;;;;;3941274;29;20056;-61
2021/12/21 06:45:27;;;;;;;6.32;5.72;;;15.80;67.40;;;;;;3941076;29;20063;-60
2021/12/21 06:53:24;;;;;;;9.23;5.97;;;15.80;67.50;;;;;;3923272;30;20521;-58
2021/12/21 06:55:46;;;;;;;7.07;5.75;;;15.70;67.50;;;;;;3909609;30;20048;-59
2021/12/21 06:58:08;;;;;;;8.15;5.82;;;15.70;68.20;;;;;;3919934;29;20432;-59
2021/12/21 07:00:31;;;;;;;6.75;5.35;;;15.60;67.40;;;;;;3939851;29;20056;-58
2021/12/21 07:02:54;;;;;;;7.90;5.68;;;15.50;68.00;;;;;;3941728;29;20071;-59
2021/12/21 07:05:17;;;;;;;8.20;5.97;;;15.50;68.70;;;;;;3933103;29;20072;-59
2021/12/21 07:07:39;;;;;;;9.98;6.80;;;15.50;69.20;;;;;;3940996;29;20060;-58
2021/12/21 07:10:05;;;;;;;6.28;5.60;;;15.60;68.90;;;;;;3932814;29;20055;-59
2021/12/21 07:17:59;;;;;;;7.18;5.50;;;15.70;68.50;;;;;;3937835;29;20571;-61
2021/12/21 07:18:12;;;;;;;10.23;6.20;;;15.80;67.80;;;;;;3944069;30;20055;-61
2021/12/21 07:20:34;;;;;;;9.20;5.07;;;15.80;67.80;;;;;;3943464;29;20067;-61
2021/12/21 07:22:57;;;;;;;7.55;5.55;;;15.90;67.50;;;;;;3936323;29;20056;-61
2021/12/21 07:25:19;;;;;;;9.27;6.25;;;15.90;67.10;;;;;;3943596;29;20560;-58
2021/12/21 07:27:41;;;;;;;7.63;5.60;;;16.00;67.00;;;;;;3942324;29;20079;-59
2021/12/21 07:30:04;;;;;;;6.13;5.50;;;15.90;66.80;;;;;;3941620;29;20499;-59
2021/12/21 07:32:26;;;;;;;8.48;5.57;;;15.90;66.60;;;;;;3953930;29;20069;-58
2021/12/21 07:34:49;;;;;;;10.43;5.95;;;15.90;67.40;;;;;;3940952;30;20117;-58
2021/12/21 07:37:11;;;;;;;7.95;5.57;;;15.90;67.70;;;;;;3940735;30;20068;-58
2021/12/21 07:39:33;;;;;;;11.02;5.70;;;16.20;66.80;;;;;;3940872;30;20140;-59
2021/12/21 07:42:11;;;;;;;9.70;5.30;;;16.60;65.50;;;;;;3940411;30;20091;-58
2021/12/21 07:44:33;;;;;;;9.02;5.85;;;17.10;63.50;;;;;;3941028;30;20051;-59
2021/12/21 07:46:56;;;;;;;8.60;5.68;;;17.60;61.60;;;;;;3940977;30;20070;-61
2021/12/21 07:49:18;;;;;;;14.10;5.70;;;18.10;59.90;;;;;;3940457;30;20515;-61
2021/12/21 07:51:42;;;;;;;7.20;5.28;;;18.40;58.70;;;;;;3940925;30;20055;-61
2021/12/21 07:54:04;;;;;;;5.25;4.28;;;18.70;57.90;;;;;;3940983;29;20467;-60
2021/12/21 07:56:26;;;;;;;8.43;4.95;;;18.80;57.40;;;;;;3940761;29;20076;-63
2021/12/21 07:58:49;;;;;;;5.97;4.93;;;18.90;57.20;;;;;;3940483;30;20063;-61
2021/12/21 08:01:12;;;;;;;7.82;4.68;;;18.80;57.20;;;;;;3940195;30;20064;-61
2021/12/21 08:03:35;;;;;;;8.90;5.03;;;18.70;57.50;;;;;;3940183;30;20043;-61
2021/12/21 08:05:59;;;;;;;6.45;4.88;;;18.50;57.90;;;;;;3940157;29;20365;-61
2021/12/21 08:08:26;;;;;;;6.70;4.78;;;18.40;58.20;;;;;;3939959;30;20047;-59
2021/12/21 08:10:52;;;;;;;7.07;4.68;;;18.40;58.40;;;;;;3939376;29;20063;-59
2021/12/21 08:13:15;;;;;;;6.22;4.85;;;18.40;58.40;;;;;;3940150;30;20533;-58
2021/12/21 08:15:37;;;;;;;7.65;5.28;;;18.40;58.40;;;;;;3940284;30;20059;-59
2021/12/21 08:17:59;;;;;;;7.50;4.65;;;18.40;58.40;;;;;;3940065;30;20056;-61
2021/12/21 08:20:21;;;;;;;7.45;5.55;;;18.30;58.40;;;;;;3939768;29;20060;-61
2021/12/21 08:22:44;;;;;;;6.57;4.82;;;18.30;58.50;;;;;;3940078;30;20058;-59
2021/12/21 08:25:08;;;;;;;8.38;4.85;;;18.20;58.70;;;;;;3939401;29;20550;-62
2021/12/21 08:27:30;;;;;;;5.03;4.38;;;18.20;58.90;;;;;;3939882;30;20067;-64
2021/12/21 08:29:52;;;;;;;6.00;4.72;;;18.10;59.10;;;;;;3939670;29;20055;-62
2021/12/21 08:32:15;;;;;;;7.70;5.82;;;18.00;59.30;;;;;;3951399;30;20047;-60
2021/12/21 08:34:37;;;;;;;6.43;4.50;;;17.90;59.50;;;;;;3939934;30;20493;-58
2021/12/21 08:37:00;;;;;;;9.02;4.88;;;17.80;59.80;;;;;;3940335;30;20616;-61
2021/12/21 08:39:23;;;;;;;7.05;5.25;;;17.70;60.40;;;;;;3939501;29;20056;-61
2021/12/21 08:41:51;;;;;;;7.88;5.47;;;17.60;60.70;;;;;;3940057;30;20110;-61
2021/12/21 08:44:20;;;;;;;8.55;4.80;;;17.60;61.00;;;;;;3939531;30;20051;-61
2021/12/21 08:46:42;;;;;;;8.20;5.07;;;17.50;61.20;;;;;;3939938;30;20052;-61
2021/12/21 08:49:04;;;;;;;9.75;5.65;;;17.50;61.20;;;;;;3938964;29;20134;-61
2021/12/21 08:51:26;;;;;;;9.32;6.25;;;17.50;61.10;;;;;;3939612;30;20508;-61
2021/12/21 08:53:48;;;;;;;7.85;4.82;;;17.50;61.10;;;;;;3939175;29;20051;-62
2021/12/21 08:56:11;;;;;;;7.43;4.93;;;17.50;61.30;;;;;;3940275;30;20151;-62
2021/12/21 08:58:35;;;;;;;7.65;5.38;;;17.60;61.20;;;;;;3939562;29;20083;-62
2021/12/21 09:00:57;;;;;;;8.15;5.55;;;17.60;61.00;;;;;;3939660;30;20112;-62
2021/12/21 09:03:20;;;;;;;7.32;5.40;;;17.50;61.00;;;;;;3939501;30;20055;-62
2021/12/21 09:05:43;;;;;;;11.43;5.53;;;17.50;61.20;;;;;;3939547;30;20059;-60
2021/12/21 09:08:06;;;;;;;12.55;5.47;;;17.40;61.40;;;;;;3939074;29;20059;-60
2021/12/21 09:10:29;;;;;;;8.30;5.13;;;17.40;61.50;;;;;;3939877;29;20592;-59
2021/12/21 09:12:52;;;;;;;9.90;5.60;;;17.40;61.60;;;;;;3939646;30;20066;-60
2021/12/21 09:15:17;;;;;;;11.00;5.25;;;17.40;61.70;;;;;;3939192;30;20063;-59
2021/12/21 09:17:41;;;;;;;9.93;5.90;;;17.40;61.60;;;;;;3938038;29;20055;-60
2021/12/21 09:20:04;;;;;;;8.40;5.55;;;17.30;62.00;;;;;;3939237;29;20056;-59
2021/12/21 09:22:38;;;;;;;10.85;5.25;;;17.30;62.20;;;;;;3938764;29;20063;-62
2021/12/21 09:25:00;;;;;;;8.70;5.90;;;17.30;62.40;;;;;;3938906;30;20059;-61
2021/12/21 09:27:22;;;;;;;8.77;4.70;;;17.30;62.30;;;;;;3937683;29;20070;-63
2021/12/21 09:29:45;;;;;;;8.27;5.70;;;17.30;62.30;;;;;;3938821;30;20492;-62
2021/12/21 09:32:13;;;;;;;9.55;5.32;;;17.30;62.10;;;;;;3938937;30;21681;-62
2021/12/21 09:34:35;;;;;;;11.20;5.95;;;17.30;62.00;;;;;;3939223;30;20147;-63
2021/12/21 09:36:58;;;;;;;11.98;5.57;;;17.30;62.30;;;;;;3939733;29;20055;-62
2021/12/21 09:39:20;;;;;;;9.05;5.88;;;17.30;62.70;;;;;;3938937;29;20051;-63
2021/12/21 09:41:42;;;;;;;8.55;5.80;;;17.20;62.90;;;;;;3939114;29;20063;-63
2021/12/21 09:44:05;;;;;;;9.90;5.85;;;17.20;63.20;;;;;;3939475;30;21151;-63
2021/12/21 09:46:27;;;;;;;10.15;5.90;;;17.20;63.10;;;;;;3939699;29;20063;-63
2021/12/21 09:48:51;;;;;;;11.35;5.63;;;17.30;63.10;;;;;;3938972;29;20576;-63
2021/12/21 09:51:13;;;;;;;8.00;5.75;;;17.30;62.80;;;;;;3938888;30;20056;-62
2021/12/21 09:53:36;;;;;;;6.97;5.28;;;17.30;62.70;;;;;;3938940;29;20071;-63
2021/12/21 09:55:58;;;;;;;7.13;5.60;;;17.30;62.70;;;;;;3939242;30;20044;-64
2021/12/21 09:58:20;;;;;;;8.40;6.18;;;17.30;62.90;;;;;;3938362;30;20505;-63
2021/12/21 10:00:42;;;;;;;10.00;5.43;;;17.30;62.90;;;;;;3938783;30;20096;-59
2021/12/21 10:03:07;;;;;;;7.40;5.25;;;17.40;62.80;;;;;;3938995;29;20051;-59
2021/12/21 10:05:33;;;;;;;6.90;5.32;;;17.40;62.50;;;;;;3938774;30;20444;-59
2021/12/21 10:07:58;;;;;;;6.65;5.10;;;17.50;62.20;;;;;;3938415;30;20101;-61
2021/12/21 10:10:21;;;;;;;8.32;5.68;;;17.50;62.10;;;;;;3939263;30;20461;-60
2021/12/21 10:12:47;;;;;;;8.85;5.68;;;17.50;62.00;;;;;;3939180;30;20060;-59
2021/12/21 10:15:12;;;;;;;7.35;5.70;;;17.40;62.10;;;;;;3938973;30;20145;-59
2021/12/21 10:17:35;;;;;;;12.10;5.82;;;17.30;62.50;;;;;;3939077;29;20044;-59
2021/12/21 10:19:57;;;;;;;12.98;6.55;;;17.30;62.90;;;;;;3938771;30;20051;-59
2021/12/21 10:22:20;;;;;;;9.55;5.40;;;17.20;63.10;;;;;;3938883;30;20068;-59
2021/12/21 10:24:49;;;;;;;8.00;5.95;;;17.20;63.10;;;;;;3937549;30;20051;-60
2021/12/21 10:27:11;;;;;;;10.13;6.20;;;17.30;63.00;;;;;;3938624;30;20462;-59
2021/12/21 10:29:41;;;;;;;11.88;6.10;;;17.30;63.00;;;;;;3938828;30;20059;-63
2021/12/21 10:32:03;;;;;;;7.70;5.95;;;17.40;62.50;;;;;;3937075;29;20143;-65
2021/12/21 10:34:28;;;;;;;11.43;6.07;;;17.40;62.50;;;;;;3938507;30;20147;-62
2021/12/21 10:36:52;;;;;;;8.63;5.85;;;17.40;62.50;;;;;;3938670;30;21001;-59
2021/12/21 10:39:21;;;;;;;7.18;5.72;;;17.30;62.50;;;;;;3938937;30;20059;-63
2021/12/21 10:41:45;;;;;;;14.98;6.30;;;17.30;62.80;;;;;;3938566;29;20462;-60
2021/12/21 10:44:10;;;;;;;8.35;5.85;;;17.20;62.80;;;;;;3938810;29;20113;-60
2021/12/21 10:46:34;;;;;;;9.23;5.50;;;17.20;63.00;;;;;;3941126;30;20062;-61
2021/12/21 10:49:06;;;;;;;5.72;5.00;;;17.20;63.10;;;;;;3941091;29;20051;-60
2021/12/21 10:51:28;;;;;;;10.88;5.50;;;17.30;62.80;;;;;;3942182;30;20070;-60
2021/12/21 10:53:50;;;;;;;8.73;5.30;;;17.40;62.50;;;;;;3941582;30;20062;-60
2021/12/21 10:56:18;;;;;;;9.77;5.03;;;17.40;62.30;;;;;;3941254;30;20067;-60
2021/12/21 10:58:42;;;;;;;6.43;4.93;;;17.30;62.30;;;;;;3941155;30;20055;-61
2021/12/21 11:01:09;;;;;;;9.20;5.72;;;17.30;62.50;;;;;;3941361;30;20047;-61
2021/12/21 11:03:36;;;;;;;10.20;5.70;;;17.20;62.80;;;;;;3941736;30;20856;-65
2021/12/21 11:06:09;;;;;;;9.68;4.97;;;17.10;63.50;;;;;;3940693;29;20105;-63
2021/12/21 11:08:37;;;;;;;9.40;5.45;;;17.10;63.80;;;;;;3940301;30;20537;-63
2021/12/21 11:11:00;;;;;;;11.32;4.95;;;17.10;63.90;;;;;;3941617;30;20428;-63
2021/12/21 11:13:23;;;;;;;6.90;5.05;;;17.10;64.00;;;;;;3939642;29;20089;-63
2021/12/21 11:15:51;;;;;;;10.07;5.13;;;17.20;63.90;;;;;;3941286;30;20057;-63
2021/12/21 11:18:16;;;;;;;10.60;5.20;;;17.20;63.70;;;;;;3941232;29;20051;-63
2021/12/21 11:20:40;;;;;;;7.82;5.07;;;17.20;63.70;;;;;;3941844;30;20489;-63
2021/12/21 11:23:04;;;;;;;8.15;4.60;;;17.10;63.70;;;;;;3941227;30;20059;-65
2021/12/21 11:25:26;;;;;;;5.78;3.95;;;17.20;63.90;;;;;;3941273;29;20497;-65
2021/12/21 11:27:49;;;;;;;9.35;4.75;;;17.10;64.10;;;;;;3941140;30;20071;-63
2021/12/21 11:30:16;;;;;;;9.32;4.93;;;17.00;64.30;;;;;;3941029;30;20102;-63
2021/12/21 11:32:43;;;;;;;8.30;4.35;;;16.90;64.50;;;;;;3940812;30;20058;-63
2021/12/21 11:37:48;;;;;;;7.05;4.50;;;16.90;65.10;;;;;;3940747;30;20055;-63
2021/12/21 11:40:12;;;;;;;14.20;5.57;;;16.90;65.30;;;;;;3940995;30;20070;-60
2021/12/21 11:42:45;;;;;;;7.65;4.97;;;16.90;65.10;;;;;;3940896;29;20051;-60
2021/12/21 11:45:13;;;;;;;7.05;4.43;;;17.00;64.70;;;;;;3940880;30;20044;-59
2021/12/21 11:47:45;;;;;;;7.00;4.13;;;17.10;64.60;;;;;;3941950;30;20473;-60
2021/12/21 11:50:10;;;;;;;10.02;4.50;;;17.00;64.50;;;;;;3942969;30;20079;-60
2021/12/21 11:52:44;;;;;;;6.75;4.18;;;17.00;64.90;;;;;;3942728;30;20079;-60
2021/12/21 11:55:10;;;;;;;8.80;4.30;;;17.00;65.40;;;;;;3928142;30;20502;-60
2021/12/21 11:57:37;;;;;;;8.23;4.93;;;17.00;66.20;;;;;;3928972;29;20143;-60
2021/12/21 12:00:08;;;;;;;7.10;5.13;;;17.10;66.20;;;;;;3931228;29;20150;-60
2021/12/21 12:02:34;;;;;;;5.78;4.32;;;17.20;65.80;;;;;;3942747;29;20519;-60
2021/12/21 12:04:58;;;;;;;5.53;4.25;;;17.30;65.40;;;;;;3928194;30;20044;-60
2021/12/21 12:07:20;;;;;;;8.27;4.38;;;17.40;64.80;;;;;;3929108;29;20056;-60
2021/12/21 12:09:42;;;;;;;6.82;4.80;;;17.40;64.30;;;;;;3928168;29;20079;-63
2021/12/21 12:12:09;;;;;;;7.00;4.40;;;17.50;64.20;;;;;;3929143;29;20052;-63
2021/12/21 12:14:33;;;;;;;7.72;4.72;;;17.40;63.90;;;;;;3937476;29;20067;-62
2021/12/21 12:16:56;;;;;;;9.82;5.00;;;17.40;64.20;;;;;;3943049;29;20079;-63
2021/12/21 12:19:20;;;;;;;8.43;4.53;;;17.30;64.50;;;;;;3942829;29;20136;-63
2021/12/21 12:21:55;;;;;;;11.18;5.07;;;17.40;65.40;;;;;;3942696;29;20060;-60
2021/12/21 12:24:20;;;;;;;8.90;5.43;;;17.40;64.20;;;;;;3942586;29;20052;-60
2021/12/21 12:26:42;;;;;;;10.63;4.80;;;17.50;64.10;;;;;;3930937;29;20421;-63
2021/12/21 12:29:14;;;;;;;10.90;5.60;;;17.50;63.90;;;;;;3928007;29;20052;-65
2021/12/21 12:31:39;;;;;;;7.35;4.68;;;17.60;63.60;;;;;;3940224;29;20059;-62
2021/12/21 12:34:01;;;;;;;6.78;5.03;;;17.60;63.70;;;;;;3942192;29;20060;-60
2021/12/21 12:36:34;;;;;;;7.18;4.53;;;17.70;63.70;;;;;;3942426;29;20096;-60
2021/12/21 12:38:58;;;;;;;7.90;5.20;;;17.70;63.30;;;;;;3942209;29;20056;-60
2021/12/21 12:41:21;;;;;;;8.48;4.75;;;17.90;63.10;;;;;;3941852;29;20060;-60
2021/12/21 12:43:44;;;;;;;5.22;3.85;;;17.90;62.80;;;;;;3942536;29;20488;-60
2021/12/21 12:46:09;;;;;;;11.65;4.43;;;17.90;62.70;;;;;;3942012;29;20058;-60
2021/12/21 12:48:38;;;;;;;6.85;4.22;;;17.80;62.80;;;;;;3927856;30;20076;-60
2021/12/21 12:51:04;;;;;;;8.15;4.22;;;17.80;63.00;;;;;;3927353;30;20371;-60
2021/12/21 12:53:37;;;;;;;6.82;4.38;;;17.70;63.90;;;;;;3938592;30;20108;-65
2021/12/21 12:56:03;;;;;;;9.20;4.32;;;17.60;63.70;;;;;;3933717;29;20113;-63
2021/12/21 12:58:35;;;;;;;5.90;4.35;;;17.50;64.40;;;;;;3941806;29;20047;-62
2021/12/21 13:01:00;;;;;;;6.60;4.45;;;17.40;64.80;;;;;;3942205;29;20051;-63
2021/12/21 13:03:35;;;;;;;4.75;3.63;;;17.30;65.00;;;;;;3941813;29;20076;-63
2021/12/21 13:05:59;;;;;;;6.27;4.63;;;17.30;65.10;;;;;;3941713;29;20386;-63
2021/12/21 13:08:23;;;;;;;10.70;4.70;;;17.20;65.70;;;;;;3941443;29;20059;-63
2021/12/21 13:10:47;;;;;;;5.97;3.92;;;17.10;66.20;;;;;;3941888;29;20063;-63
2021/12/21 13:13:10;;;;;;;8.82;4.75;;;17.10;66.60;;;;;;3942353;29;20412;-63
2021/12/21 13:15:35;;;;;;;8.57;4.50;;;17.10;66.50;;;;;;3942232;29;20059;-63
2021/12/21 13:18:01;;;;;;;6.47;3.88;;;17.20;66.30;;;;;;3941351;29;20059;-63